createdAt,value
2023-05-15T00:02:23.552Z,11.70
2023-05-15T00:05:05.986Z,11.63
2023-05-15T00:07:54.437Z,11.61
2023-05-15T00:10:36.806Z,11.66
2023-05-15T00:13:18.985Z,11.69
2023-05-15T00:15:45.985Z,11.63
2023-05-15T00:18:12.959Z,11.55
2023-05-15T00:20:40.007Z,11.63
2023-05-15T00:23:06.896Z,11.65
2023-05-15T00:25:33.806Z,11.70
2023-05-15T00:28:00.791Z,11.69
2023-05-15T00:30:28.365Z,11.69
2023-05-15T00:32:55.321Z,11.60
2023-05-15T00:35:22.777Z,11.57
2023-05-15T00:37:49.892Z,11.52
2023-05-15T00:40:22.155Z,11.59
2023-05-15T00:42:50.191Z,11.63
2023-05-15T00:45:17.970Z,11.68
2023-05-15T00:47:45.954Z,11.58
2023-05-15T00:50:13.184Z,11.57
2023-05-15T00:52:40.090Z,11.56
2023-05-15T00:55:07.270Z,11.45
2023-05-15T00:57:35.204Z,11.42
2023-05-15T01:00:06.908Z,11.47
2023-05-15T01:02:33.921Z,11.50
2023-05-15T01:05:01.123Z,11.49
2023-05-15T01:07:48.983Z,11.43
2023-05-15T01:10:34.528Z,11.51
2023-05-15T01:13:23.576Z,11.51
2023-05-15T01:16:07.225Z,11.56
2023-05-15T01:18:43.524Z,11.49
2023-05-15T01:21:22.669Z,11.57
2023-05-15T01:24:16.726Z,11.54
2023-05-15T01:27:02.200Z,11.57
2023-05-15T01:29:49.921Z,11.60
2023-05-15T01:32:28.682Z,11.56
2023-05-15T01:35:26.023Z,11.61
2023-05-15T01:38:03.898Z,11.60
2023-05-15T01:40:30.814Z,11.65
2023-05-15T01:43:06.244Z,11.64
2023-05-15T01:45:34.346Z,11.66
2023-05-15T01:48:02.529Z,11.63
2023-05-15T01:50:33.181Z,11.52
2023-05-15T01:53:02.532Z,11.63
2023-05-15T01:55:31.015Z,11.55
2023-05-15T01:58:01.560Z,11.60
2023-05-15T02:00:29.979Z,11.58
2023-05-15T02:02:58.898Z,11.60
2023-05-15T02:05:27.603Z,11.46
2023-05-15T02:07:55.756Z,11.45
2023-05-15T02:10:23.521Z,11.47
2023-05-15T02:12:50.989Z,11.49
2023-05-15T02:15:18.850Z,11.57
2023-05-15T02:17:46.212Z,11.63
2023-05-15T02:20:13.320Z,11.68
2023-05-15T02:22:40.319Z,11.62
2023-05-15T02:25:07.550Z,11.67
2023-05-15T02:27:47.120Z,11.71
2023-05-15T02:30:32.245Z,11.66
2023-05-15T02:33:15.070Z,11.70
2023-05-15T02:35:47.017Z,11.67
2023-05-15T02:38:19.221Z,11.71
2023-05-15T02:40:48.437Z,11.71
2023-05-15T02:43:18.131Z,11.68
2023-05-15T02:45:47.470Z,11.72
2023-05-15T02:48:16.196Z,11.75
2023-05-15T02:50:44.152Z,11.78
2023-05-15T02:53:12.032Z,11.79
2023-05-15T02:55:38.984Z,11.78
2023-05-15T02:58:06.107Z,11.80
2023-05-15T03:00:33.068Z,11.80
2023-05-15T03:03:00.018Z,11.71
2023-05-15T03:05:27.244Z,11.70
2023-05-15T03:07:54.408Z,11.73
2023-05-15T03:10:24.031Z,11.77
2023-05-15T03:12:51.034Z,11.76
2023-05-15T03:15:18.517Z,11.79
2023-05-15T03:17:46.004Z,11.80
2023-05-15T03:20:14.371Z,11.83
2023-05-15T03:22:41.856Z,11.85
2023-05-15T03:25:12.174Z,11.76
2023-05-15T03:27:39.348Z,11.80
2023-05-15T03:30:06.976Z,11.84
2023-05-15T03:32:34.067Z,11.87
2023-05-15T03:35:01.411Z,11.89
2023-05-15T03:37:28.613Z,11.91
2023-05-15T03:39:55.639Z,11.91
2023-05-15T03:42:23.908Z,11.93
2023-05-15T03:44:51.561Z,11.91
2023-05-15T03:47:18.867Z,11.89
2023-05-15T03:49:46.795Z,11.71
2023-05-15T03:52:13.947Z,11.73
2023-05-15T03:54:41.172Z,11.77
2023-05-15T03:57:08.223Z,11.80
2023-05-15T03:59:35.151Z,11.82
2023-05-15T04:02:05.364Z,11.76
2023-05-15T04:04:33.228Z,11.63
2023-05-15T04:07:00.705Z,11.69
2023-05-15T04:09:28.677Z,11.78
2023-05-15T04:11:55.865Z,11.82
2023-05-15T04:14:22.869Z,11.85
2023-05-15T04:16:49.939Z,11.88
2023-05-15T04:19:17.037Z,11.89
2023-05-15T04:21:44.005Z,11.78
2023-05-15T04:24:11.087Z,11.80
2023-05-15T04:26:38.247Z,11.81
2023-05-15T04:29:06.222Z,11.87
2023-05-15T04:31:33.297Z,11.87
2023-05-15T04:34:00.224Z,11.92
2023-05-15T04:36:27.406Z,11.97
2023-05-15T04:38:54.308Z,11.96
2023-05-15T04:41:21.188Z,12.00
2023-05-15T04:43:48.096Z,12.05
2023-05-15T04:46:15.007Z,12.05
2023-05-15T04:48:41.962Z,11.97
2023-05-15T04:51:08.859Z,11.95
2023-05-15T04:53:36.097Z,12.12
2023-05-15T04:56:02.973Z,12.23
2023-05-15T04:58:29.880Z,12.13
2023-05-15T05:00:56.905Z,12.29
2023-05-15T05:03:23.965Z,12.20
2023-05-15T05:05:50.993Z,12.42
2023-05-15T05:08:17.886Z,12.51
2023-05-15T05:10:44.835Z,12.49
2023-05-15T05:13:11.743Z,12.56
2023-05-15T05:15:38.762Z,12.47
2023-05-15T05:18:06.302Z,12.48
2023-05-15T05:20:33.241Z,12.51
2023-05-15T05:23:00.228Z,12.50
2023-05-15T05:25:27.230Z,12.55
2023-05-15T05:27:54.198Z,12.66
2023-05-15T05:30:22.521Z,12.64
2023-05-15T05:32:49.620Z,12.60
2023-05-15T05:35:16.625Z,12.68
2023-05-15T05:37:43.623Z,12.73
2023-05-15T05:40:11.084Z,12.76
2023-05-15T05:42:38.112Z,12.83
2023-05-15T05:45:06.865Z,12.88
2023-05-15T05:47:33.859Z,12.79
2023-05-15T05:50:00.795Z,12.84
2023-05-15T05:52:29.254Z,12.83
2023-05-15T05:54:56.228Z,12.82
2023-05-15T05:57:23.170Z,12.78
2023-05-15T05:59:50.203Z,12.78
2023-05-15T06:02:17.258Z,12.85
2023-05-15T06:04:44.375Z,12.72
2023-05-15T06:07:11.303Z,12.83
2023-05-15T06:09:38.403Z,12.94
2023-05-15T06:12:05.820Z,13.05
2023-05-15T06:14:32.888Z,13.18
2023-05-15T06:17:01.230Z,13.18
2023-05-15T06:19:28.185Z,13.26
2023-05-15T06:21:55.122Z,13.39
2023-05-15T06:24:22.077Z,13.49
2023-05-15T06:26:50.544Z,13.51
2023-05-15T06:29:18.742Z,13.68
2023-05-15T06:31:45.801Z,13.81
2023-05-15T06:34:12.749Z,13.89
2023-05-15T06:36:39.863Z,14.07
2023-05-15T06:39:06.802Z,14.27
2023-05-15T06:41:33.705Z,14.45
2023-05-15T06:44:00.623Z,14.57
2023-05-15T06:46:27.633Z,14.64
2023-05-15T06:48:54.585Z,14.65
2023-05-15T06:51:21.558Z,14.62
2023-05-15T06:53:48.477Z,14.62
2023-05-15T06:56:15.610Z,14.64
2023-05-15T06:58:42.486Z,14.68
2023-05-15T07:01:09.814Z,14.69
2023-05-15T07:03:36.816Z,14.73
2023-05-15T07:06:04.129Z,14.67
2023-05-15T07:08:30.979Z,14.59
2023-05-15T07:10:57.926Z,14.50
2023-05-15T07:13:24.831Z,14.47
2023-05-15T07:15:51.789Z,14.51
2023-05-15T07:18:18.719Z,14.56
2023-05-15T07:20:45.813Z,14.60
2023-05-15T07:23:12.775Z,14.65
2023-05-15T07:25:39.978Z,14.70
2023-05-15T07:28:06.943Z,14.69
2023-05-15T07:30:33.914Z,14.70
2023-05-15T07:33:01.243Z,14.54
2023-05-15T07:35:28.371Z,14.56
2023-05-15T07:37:55.416Z,14.58
2023-05-15T07:40:22.547Z,14.30
2023-05-15T07:42:49.462Z,14.67
2023-05-15T07:45:16.540Z,14.69
2023-05-15T07:47:46.917Z,14.69
2023-05-15T07:50:13.999Z,14.71
2023-05-15T07:52:41.648Z,14.72
2023-05-15T07:55:09.848Z,14.69
2023-05-15T07:57:36.874Z,14.63
2023-05-15T08:00:10.362Z,14.66
2023-05-15T08:02:37.919Z,14.70
2023-05-15T08:05:05.667Z,14.74
2023-05-15T08:07:35.573Z,14.56
2023-05-15T08:10:04.549Z,14.55
2023-05-15T08:12:31.510Z,14.56
2023-05-15T08:14:58.451Z,14.57
2023-05-15T08:17:26.201Z,14.51
2023-05-15T08:19:53.711Z,14.49
2023-05-15T08:22:20.660Z,14.47
2023-05-15T08:24:47.754Z,14.44
2023-05-15T08:27:14.855Z,14.46
2023-05-15T08:29:41.790Z,14.43
2023-05-15T08:32:09.452Z,14.41
2023-05-15T08:34:36.408Z,14.42
2023-05-15T08:37:05.067Z,14.40
2023-05-15T08:39:32.077Z,14.52
2023-05-15T08:42:24.537Z,14.61
2023-05-15T08:44:51.474Z,14.62
2023-05-15T08:47:20.454Z,14.58
2023-05-15T08:50:04.926Z,14.69
2023-05-15T08:52:33.448Z,14.72
2023-05-15T08:55:01.502Z,14.67
2023-05-15T08:57:28.936Z,14.67
2023-05-15T08:59:57.147Z,14.75
2023-05-15T09:02:25.800Z,14.80
2023-05-15T09:04:52.936Z,14.92
2023-05-15T09:07:20.823Z,14.92
2023-05-15T09:09:48.417Z,14.85
2023-05-15T09:12:16.299Z,14.90
2023-05-15T09:14:43.880Z,14.85
2023-05-15T09:17:12.148Z,14.85
2023-05-15T09:19:42.835Z,14.84
2023-05-15T09:22:17.922Z,14.95
2023-05-15T09:24:48.462Z,14.96
2023-05-15T09:27:15.479Z,15.05
2023-05-15T09:29:42.444Z,15.10
2023-05-15T09:32:15.109Z,15.15
2023-05-15T09:34:44.759Z,15.20
2023-05-15T09:37:29.295Z,15.25
2023-05-15T09:39:56.640Z,15.25
2023-05-15T09:42:24.871Z,15.21
2023-05-15T09:44:51.771Z,15.24
2023-05-15T09:47:19.838Z,15.26
2023-05-15T09:49:47.604Z,15.21
2023-05-15T09:52:20.724Z,15.24
2023-05-15T09:54:50.247Z,15.24
2023-05-15T09:57:22.855Z,15.28
2023-05-15T09:59:50.690Z,15.35
2023-05-15T10:02:32.302Z,15.40
2023-05-15T10:04:59.810Z,15.59
2023-05-15T10:07:33.686Z,15.74
2023-05-15T10:10:02.726Z,15.76
2023-05-15T10:12:32.557Z,15.74
2023-05-15T10:15:01.262Z,15.63
2023-05-15T10:17:31.969Z,15.68
2023-05-15T10:20:00.982Z,15.69
2023-05-15T10:22:32.732Z,15.39
2023-05-15T10:25:13.627Z,15.41
2023-05-15T10:27:41.000Z,15.09
2023-05-15T10:30:10.166Z,15.07
2023-05-15T10:32:37.740Z,15.04
2023-05-15T10:35:05.162Z,15.06
2023-05-15T10:37:32.903Z,15.05
2023-05-15T10:40:02.149Z,14.98
2023-05-15T10:42:29.947Z,15.01
2023-05-15T10:45:00.492Z,14.95
2023-05-15T10:47:27.937Z,14.95
2023-05-15T10:49:54.935Z,14.91
2023-05-15T10:52:21.998Z,14.89
2023-05-15T10:54:48.918Z,14.92
2023-05-15T10:57:16.222Z,14.90
2023-05-15T10:59:44.367Z,14.95
2023-05-15T11:02:26.011Z,14.96
2023-05-15T11:05:01.299Z,15.01
2023-05-15T11:07:28.730Z,15.09
2023-05-15T11:09:56.956Z,15.31
2023-05-15T11:12:24.870Z,15.59
2023-05-15T11:14:54.763Z,15.83
2023-05-15T11:17:24.487Z,16.13
2023-05-15T11:19:51.673Z,15.87
2023-05-15T11:22:41.914Z,15.64
2023-05-15T11:25:14.608Z,15.86
2023-05-15T11:27:43.927Z,15.89
2023-05-15T11:30:15.176Z,16.21
2023-05-15T11:32:59.506Z,16.02
2023-05-15T11:35:44.116Z,15.75
2023-05-15T11:38:11.084Z,15.74
2023-05-15T11:40:50.569Z,15.74
2023-05-15T11:43:27.096Z,15.76
2023-05-15T11:45:56.397Z,15.91
2023-05-15T11:48:24.883Z,15.84
2023-05-15T11:50:55.030Z,15.99
2023-05-15T11:53:24.234Z,16.06
2023-05-15T11:55:53.477Z,16.29
2023-05-15T11:58:22.673Z,16.41
2023-05-15T12:00:51.823Z,16.57
2023-05-15T12:03:25.520Z,16.81
2023-05-15T12:05:59.602Z,16.98
2023-05-15T12:08:32.587Z,16.97
2023-05-15T12:11:00.924Z,16.87
2023-05-15T12:13:28.251Z,16.72
2023-05-15T12:15:57.116Z,16.68
2023-05-15T12:18:24.675Z,16.70
2023-05-15T12:20:55.415Z,16.39
2023-05-15T12:23:25.129Z,16.27
2023-05-15T12:25:57.921Z,16.29
2023-05-15T12:28:25.770Z,16.27
2023-05-15T12:30:53.394Z,16.27
2023-05-15T12:33:20.615Z,16.26
2023-05-15T12:35:56.258Z,16.23
2023-05-15T12:38:25.216Z,16.13
2023-05-15T12:40:57.380Z,16.12
2023-05-15T12:43:26.235Z,16.12
2023-05-15T12:45:57.531Z,16.16
2023-05-15T12:48:30.898Z,16.24
2023-05-15T12:51:05.496Z,16.34
2023-05-15T12:53:34.645Z,16.53
2023-05-15T12:56:02.017Z,16.74
2023-05-15T12:58:29.209Z,16.78
2023-05-15T13:00:57.111Z,16.75
2023-05-15T13:03:25.550Z,16.74
2023-05-15T13:05:52.981Z,16.58
2023-05-15T13:08:19.957Z,16.44
2023-05-15T13:10:47.977Z,16.35
2023-05-15T13:13:16.824Z,16.23
2023-05-15T13:15:45.009Z,16.24
2023-05-15T13:18:14.469Z,16.21
2023-05-15T13:20:46.417Z,16.13
2023-05-15T13:23:16.406Z,16.02
2023-05-15T13:25:43.676Z,16.07
2023-05-15T13:28:11.718Z,16.04
2023-05-15T13:30:41.993Z,16.05
2023-05-15T13:33:13.181Z,16.10
2023-05-15T13:35:43.221Z,16.04
2023-05-15T13:38:11.903Z,16.04
2023-05-15T13:40:39.531Z,16.06
2023-05-15T13:43:06.997Z,16.11
2023-05-15T13:45:34.553Z,16.02
2023-05-15T13:48:01.883Z,16.02
2023-05-15T13:50:28.921Z,16.08
2023-05-15T13:52:56.238Z,16.12
2023-05-15T13:55:23.576Z,16.20
2023-05-15T13:57:51.643Z,16.23
2023-05-15T14:00:19.941Z,16.32
2023-05-15T14:02:46.872Z,16.23
2023-05-15T14:05:15.241Z,16.19
2023-05-15T14:07:42.696Z,16.04
2023-05-15T14:10:10.835Z,15.88
2023-05-15T14:12:38.659Z,15.85
2023-05-15T14:15:06.181Z,15.77
2023-05-15T14:17:33.223Z,15.82
2023-05-15T14:20:00.269Z,16.11
2023-05-15T14:22:27.222Z,16.29
2023-05-15T14:24:54.186Z,16.41
2023-05-15T14:27:21.209Z,16.37
2023-05-15T14:29:49.604Z,16.37
2023-05-15T14:32:18.099Z,16.30
2023-05-15T14:34:45.132Z,16.32
2023-05-15T14:37:12.275Z,16.32
2023-05-15T14:39:39.424Z,16.29
2023-05-15T14:42:06.840Z,16.18
2023-05-15T14:44:34.801Z,16.59
2023-05-15T14:47:16.976Z,16.77
2023-05-15T14:49:43.948Z,16.83
2023-05-15T14:52:12.508Z,16.84
2023-05-15T14:54:40.176Z,16.95
2023-05-15T14:57:10.039Z,17.18
2023-05-15T14:59:37.291Z,17.32
2023-05-15T15:02:04.439Z,17.09
2023-05-15T15:04:34.480Z,17.24
2023-05-15T15:07:04.542Z,17.30
2023-05-15T15:09:31.680Z,17.16
2023-05-15T15:11:58.620Z,17.07
2023-05-15T15:14:25.607Z,16.69
2023-05-15T15:16:52.462Z,16.76
2023-05-15T15:19:20.383Z,16.88
2023-05-15T15:21:47.921Z,16.88
2023-05-15T15:24:15.366Z,16.84
2023-05-15T15:26:42.567Z,16.71
2023-05-15T15:29:09.442Z,16.58
2023-05-15T15:31:36.633Z,16.49
2023-05-15T15:34:05.801Z,16.42
2023-05-15T15:36:33.071Z,16.52
2023-05-15T15:39:00.021Z,16.56
2023-05-15T15:41:29.425Z,16.55
2023-05-15T15:43:56.303Z,16.53
2023-05-15T15:46:23.325Z,16.47
2023-05-15T15:48:50.327Z,16.55
2023-05-15T15:51:17.310Z,16.48
2023-05-15T15:53:44.175Z,16.39
2023-05-15T15:56:11.146Z,16.36
2023-05-15T15:58:38.068Z,16.04
2023-05-15T16:01:05.121Z,15.78
2023-05-15T16:03:32.179Z,15.78
2023-05-15T16:06:00.323Z,15.97
2023-05-15T16:08:27.669Z,15.96
2023-05-15T16:10:55.200Z,15.97
2023-05-15T16:13:22.172Z,15.91
2023-05-15T16:15:49.161Z,15.90
2023-05-15T16:18:16.076Z,15.87
2023-05-15T16:20:42.994Z,15.94
2023-05-15T16:23:11.898Z,15.73
2023-05-15T16:25:38.823Z,15.82
2023-05-15T16:28:06.369Z,15.75
2023-05-15T16:33:07.572Z,15.57
2023-05-15T16:35:36.876Z,15.47
2023-05-15T16:38:04.671Z,15.40
2023-05-15T16:40:31.616Z,15.41
2023-05-15T16:42:58.527Z,15.42
2023-05-15T16:45:25.546Z,15.58
2023-05-15T16:47:52.455Z,15.61
2023-05-15T16:50:19.435Z,15.54
2023-05-15T16:52:48.360Z,15.54
2023-05-15T16:55:17.262Z,15.63
2023-05-15T16:57:47.614Z,15.79
2023-05-15T17:00:16.172Z,15.88
2023-05-15T17:02:43.749Z,15.88
2023-05-15T17:05:11.768Z,16.06
2023-05-15T17:07:39.451Z,16.04
2023-05-15T17:10:10.815Z,16.04
2023-05-15T17:12:38.730Z,16.05
2023-05-15T17:15:06.492Z,15.96
2023-05-15T17:17:33.406Z,16.06
2023-05-15T17:20:02.724Z,16.20
2023-05-15T17:22:30.329Z,16.18
2023-05-15T17:24:57.412Z,16.19
2023-05-15T17:27:24.957Z,16.30
2023-05-15T17:29:52.103Z,16.42
2023-05-15T17:32:20.091Z,16.33
2023-05-15T17:34:47.349Z,16.21
2023-05-15T17:37:14.928Z,16.15
2023-05-15T17:39:42.302Z,15.84
2023-05-15T17:42:09.299Z,15.95
2023-05-15T17:44:36.567Z,15.82
2023-05-15T17:47:03.633Z,15.58
2023-05-15T17:49:30.622Z,15.36
2023-05-15T17:51:58.719Z,15.30
2023-05-15T17:54:27.470Z,15.24
2023-05-15T17:56:55.074Z,14.97
2023-05-15T17:59:22.613Z,14.96
2023-05-15T18:01:50.050Z,14.95
2023-05-15T18:04:17.954Z,14.93
2023-05-15T18:06:45.544Z,14.85
2023-05-15T18:09:12.860Z,14.77
2023-05-15T18:11:40.037Z,14.76
2023-05-15T18:14:06.951Z,14.74
2023-05-15T18:16:34.052Z,14.65
2023-05-15T18:19:00.972Z,14.61
2023-05-15T18:21:28.930Z,14.58
2023-05-15T18:23:55.961Z,14.52
2023-05-15T18:26:23.273Z,14.45
2023-05-15T18:28:50.379Z,14.38
2023-05-15T18:31:17.491Z,14.32
2023-05-15T18:33:45.187Z,14.29
2023-05-15T18:36:12.168Z,14.24
2023-05-15T18:38:39.162Z,14.21
2023-05-15T18:41:06.153Z,14.12
2023-05-15T18:43:33.083Z,14.07
2023-05-15T18:46:01.016Z,14.02
2023-05-15T18:48:28.320Z,13.98
2023-05-15T18:50:56.139Z,13.98
2023-05-15T18:53:23.218Z,13.94
2023-05-15T18:55:50.732Z,13.88
2023-05-15T18:58:17.788Z,13.85
2023-05-15T19:00:44.722Z,13.70
2023-05-15T19:03:11.829Z,13.66
2023-05-15T19:05:38.904Z,13.66
2023-05-15T19:08:06.131Z,13.43
2023-05-15T19:10:33.078Z,13.70
2023-05-15T19:12:59.934Z,13.68
2023-05-15T19:15:27.095Z,13.61
2023-05-15T19:17:54.047Z,13.64
2023-05-15T19:20:21.173Z,13.64
2023-05-15T19:22:48.130Z,13.66
2023-05-15T19:25:15.146Z,13.69
2023-05-15T19:27:42.239Z,13.63
2023-05-15T19:30:10.248Z,13.50
2023-05-15T19:32:37.894Z,13.55
2023-05-15T19:35:05.865Z,13.59
2023-05-15T19:37:32.950Z,13.59
2023-05-15T19:39:59.955Z,13.60
2023-05-15T19:42:26.858Z,13.65
2023-05-15T19:44:53.790Z,13.69
2023-05-15T19:47:20.899Z,13.70
2023-05-15T19:49:47.786Z,13.67
2023-05-15T19:52:15.534Z,13.64
2023-05-15T19:54:42.496Z,13.67
2023-05-15T19:57:09.433Z,13.66
2023-05-15T19:59:36.305Z,13.64
2023-05-15T20:02:03.448Z,13.62
2023-05-15T20:04:32.762Z,13.57
2023-05-15T20:06:59.659Z,13.46
2023-05-15T20:09:26.644Z,13.33
2023-05-15T20:11:53.655Z,13.22
2023-05-15T20:14:20.762Z,13.17
2023-05-15T20:16:47.801Z,13.10
2023-05-15T20:19:14.914Z,13.03
2023-05-15T20:21:41.955Z,13.00
2023-05-15T20:24:10.528Z,12.94
2023-05-15T20:26:37.530Z,12.88
2023-05-15T20:29:04.529Z,12.87
2023-05-15T20:31:31.601Z,12.83
2023-05-15T20:33:59.407Z,12.77
2023-05-15T20:36:26.381Z,12.67
2023-05-15T20:38:53.368Z,12.64
2023-05-15T20:41:22.841Z,12.56
2023-05-15T20:43:50.126Z,12.45
2023-05-15T20:46:17.353Z,12.43
2023-05-15T20:48:44.542Z,12.37
2023-05-15T20:51:11.437Z,12.28
2023-05-15T20:53:38.449Z,12.22
2023-05-15T20:56:05.562Z,12.18
2023-05-15T20:58:32.514Z,12.07
2023-05-15T21:01:01.384Z,12.02
2023-05-15T21:03:29.228Z,11.97
2023-05-15T21:05:57.585Z,11.91
2023-05-15T21:08:24.929Z,11.84
2023-05-15T21:10:53.328Z,11.81
2023-05-15T21:13:20.282Z,11.74
2023-05-15T21:15:47.439Z,11.64
2023-05-15T21:18:14.477Z,11.62
2023-05-15T21:20:41.990Z,11.60
2023-05-15T21:23:08.990Z,11.58
2023-05-15T21:25:36.176Z,11.52
2023-05-15T21:28:04.366Z,11.43
2023-05-15T21:30:31.879Z,11.41
2023-05-15T21:32:59.045Z,11.44
2023-05-15T21:35:29.034Z,11.43
2023-05-15T21:37:56.156Z,11.41
2023-05-15T21:40:23.099Z,11.42
2023-05-15T21:42:50.066Z,11.44
2023-05-15T21:45:17.606Z,11.43
2023-05-15T21:47:44.588Z,11.41
2023-05-15T21:50:11.801Z,11.43
2023-05-15T21:52:38.667Z,11.43
2023-05-15T21:55:06.048Z,11.44
2023-05-15T21:57:33.077Z,11.41
2023-05-15T22:00:00.194Z,11.38
2023-05-15T22:02:27.174Z,11.41
2023-05-15T22:04:54.084Z,11.44
2023-05-15T22:07:21.014Z,11.41
2023-05-15T22:09:47.905Z,11.42
2023-05-15T22:12:14.825Z,11.41
2023-05-15T22:14:54.623Z,11.34
2023-05-15T22:17:27.559Z,11.34
2023-05-15T22:19:54.462Z,11.31
2023-05-15T22:22:21.609Z,11.32
2023-05-15T22:24:48.489Z,11.29
2023-05-15T22:27:16.916Z,11.26
2023-05-15T22:29:44.195Z,11.24
2023-05-15T22:32:11.121Z,11.22
2023-05-15T22:34:38.045Z,11.19
2023-05-15T22:37:05.193Z,11.16
2023-05-15T22:39:32.987Z,11.18
2023-05-15T22:41:59.910Z,11.15
2023-05-15T22:44:26.859Z,11.12
2023-05-15T22:46:53.803Z,11.08
2023-05-15T22:49:25.735Z,11.06
2023-05-15T22:51:54.081Z,11.02
2023-05-15T22:54:22.338Z,10.96
2023-05-15T22:56:51.839Z,10.92
2023-05-15T22:59:19.477Z,10.83
2023-05-15T23:01:47.636Z,10.87
2023-05-15T23:04:15.322Z,10.84
2023-05-15T23:06:42.320Z,10.81
2023-05-15T23:09:09.556Z,10.81
2023-05-15T23:11:37.977Z,10.80
2023-05-15T23:14:04.945Z,10.75
2023-05-15T23:16:32.019Z,10.72
2023-05-15T23:18:58.975Z,10.67
2023-05-15T23:21:26.287Z,10.67
2023-05-15T23:23:53.254Z,10.63
2023-05-15T23:26:20.152Z,10.63
2023-05-15T23:28:47.330Z,10.61
2023-05-15T23:31:14.716Z,10.61
2023-05-15T23:33:41.811Z,10.59
2023-05-15T23:36:08.999Z,10.59
2023-05-15T23:38:36.009Z,10.58
2023-05-15T23:41:02.928Z,10.52
2023-05-15T23:43:29.973Z,10.57
2023-05-15T23:45:56.956Z,10.54
2023-05-15T23:48:23.912Z,10.52
2023-05-15T23:50:52.565Z,10.50
2023-05-15T23:53:19.561Z,10.47
2023-05-15T23:55:46.536Z,10.47
2023-05-15T23:58:13.411Z,10.46
